createdAt,value
2023-05-19T00:01:01.544Z,99.90
2023-05-19T00:03:34.048Z,99.90
2023-05-19T00:06:06.210Z,99.90
2023-05-19T00:08:37.907Z,99.90
2023-05-19T00:11:09.226Z,99.90
2023-05-19T00:13:42.291Z,99.90
2023-05-19T00:16:14.865Z,99.90
2023-05-19T00:18:45.178Z,99.90
2023-05-19T00:21:15.375Z,99.90
2023-05-19T00:23:45.649Z,99.90
2023-05-19T00:26:15.978Z,99.90
2023-05-19T00:28:48.636Z,99.90
2023-05-19T00:31:18.833Z,99.90
2023-05-19T00:33:48.964Z,99.90
2023-05-19T00:36:19.098Z,99.90
2023-05-19T00:38:49.165Z,99.90
2023-05-19T00:41:19.273Z,99.90
2023-05-19T00:43:52.301Z,99.90
2023-05-19T00:46:23.218Z,99.90
2023-05-19T00:48:53.404Z,99.90
2023-05-19T00:51:23.730Z,99.90
2023-05-19T00:53:54.215Z,99.90
2023-05-19T00:56:24.590Z,99.90
2023-05-19T00:58:58.353Z,99.90
2023-05-19T01:01:28.727Z,99.90
2023-05-19T01:03:59.774Z,99.90
2023-05-19T01:06:30.643Z,99.90
2023-05-19T01:09:00.864Z,99.90
2023-05-19T01:11:30.916Z,99.90
2023-05-19T01:14:03.721Z,99.90
2023-05-19T01:16:39.989Z,99.90
2023-05-19T01:19:35.357Z,99.90
2023-05-19T01:22:43.028Z,99.90
2023-05-19T01:25:56.257Z,99.90
2023-05-19T01:29:01.023Z,99.90
2023-05-19T01:31:34.416Z,99.90
2023-05-19T01:34:06.476Z,99.90
2023-05-19T01:36:37.528Z,99.90
2023-05-19T01:39:08.107Z,99.90
2023-05-19T01:41:38.643Z,99.90
2023-05-19T01:44:09.185Z,99.90
2023-05-19T01:46:42.804Z,99.90
2023-05-19T01:49:12.960Z,99.90
2023-05-19T01:51:44.315Z,99.90
2023-05-19T01:54:14.455Z,99.90
2023-05-19T01:57:00.347Z,99.90
2023-05-19T01:59:44.293Z,99.90
2023-05-19T02:02:29.858Z,99.90
2023-05-19T02:05:08.917Z,99.90
2023-05-19T02:07:47.981Z,99.90
2023-05-19T02:10:25.738Z,99.90
2023-05-19T02:12:57.280Z,99.90
2023-05-19T02:15:29.613Z,99.90
2023-05-19T02:18:04.704Z,99.90
2023-05-19T02:20:35.250Z,99.90
2023-05-19T02:23:05.390Z,99.90
2023-05-19T02:25:35.630Z,99.90
2023-05-19T02:28:06.917Z,99.90
2023-05-19T02:30:37.077Z,99.90
2023-05-19T02:33:11.608Z,99.90
2023-05-19T02:35:41.710Z,99.90
2023-05-19T02:38:11.765Z,99.90
2023-05-19T02:40:41.886Z,99.90
2023-05-19T02:43:12.193Z,99.90
2023-05-19T02:45:42.458Z,99.90
2023-05-19T02:48:15.182Z,99.90
2023-05-19T02:50:45.269Z,99.90
2023-05-19T02:53:15.360Z,99.90
2023-05-19T02:55:45.976Z,99.90
2023-05-19T02:58:16.037Z,99.90
2023-05-19T03:00:46.936Z,99.90
2023-05-19T03:03:20.029Z,99.90
2023-05-19T03:05:50.246Z,99.90
2023-05-19T03:08:20.353Z,99.90
2023-05-19T03:10:51.151Z,99.90
2023-05-19T03:13:21.197Z,99.90
2023-05-19T03:15:51.650Z,99.90
2023-05-19T03:18:24.944Z,99.90
2023-05-19T03:20:55.779Z,99.90
2023-05-19T03:23:26.745Z,99.90
2023-05-19T03:25:56.969Z,99.90
2023-05-19T03:28:27.469Z,99.90
2023-05-19T03:30:57.590Z,99.90
2023-05-19T03:33:30.847Z,99.90
2023-05-19T03:36:01.079Z,99.90
2023-05-19T03:38:31.194Z,99.90
2023-05-19T03:41:01.261Z,99.90
2023-05-19T03:43:31.363Z,99.90
2023-05-19T03:46:02.433Z,99.90
2023-05-19T03:48:35.241Z,99.90
2023-05-19T03:51:05.301Z,99.90
2023-05-19T03:53:35.397Z,99.90
2023-05-19T03:56:05.656Z,99.90
2023-05-19T03:58:37.220Z,99.90
2023-05-19T04:01:07.462Z,99.90
2023-05-19T04:03:40.294Z,99.90
2023-05-19T04:06:11.301Z,99.90
2023-05-19T04:08:42.072Z,99.90
2023-05-19T04:11:12.404Z,99.90
2023-05-19T04:13:42.526Z,99.90
2023-05-19T04:16:12.838Z,99.90
2023-05-19T04:18:46.655Z,99.90
2023-05-19T04:21:16.787Z,99.90
2023-05-19T04:23:46.924Z,99.90
2023-05-19T04:26:18.212Z,99.90
2023-05-19T04:28:48.526Z,99.90
2023-05-19T04:31:18.729Z,99.90
2023-05-19T04:33:53.633Z,99.90
2023-05-19T04:36:24.235Z,99.90
2023-05-19T04:38:55.055Z,99.90
2023-05-19T04:41:25.176Z,99.90
2023-05-19T04:43:57.651Z,99.90
2023-05-19T04:46:30.480Z,99.90
2023-05-19T04:49:04.060Z,99.90
2023-05-19T04:51:35.978Z,99.90
2023-05-19T04:54:06.576Z,99.90
2023-05-19T04:56:36.677Z,99.90
2023-05-19T04:59:07.093Z,99.90
2023-05-19T05:01:40.503Z,99.90
2023-05-19T05:04:13.400Z,99.90
2023-05-19T05:06:48.008Z,99.90
2023-05-19T05:09:19.045Z,99.90
2023-05-19T05:11:50.135Z,99.90
2023-05-19T05:14:21.449Z,99.90
2023-05-19T05:16:53.865Z,99.90
2023-05-19T05:19:27.629Z,99.90
2023-05-19T05:21:58.884Z,99.90
2023-05-19T05:24:30.302Z,99.90
2023-05-19T05:27:00.389Z,99.90
2023-05-19T05:29:30.503Z,99.90
2023-05-19T05:32:00.614Z,99.90
2023-05-19T05:34:33.456Z,99.90
2023-05-19T05:37:03.548Z,99.90
2023-05-19T05:39:34.095Z,99.90
2023-05-19T05:42:04.181Z,99.90
2023-05-19T05:44:35.865Z,99.90
2023-05-19T08:21:03.893Z,95.40
2023-05-19T08:23:33.985Z,95.20
2023-05-19T08:26:04.268Z,96.10
2023-05-19T08:28:34.459Z,95.50
2023-05-19T08:31:04.679Z,95.20
2023-05-19T08:33:34.789Z,95.30
2023-05-19T08:36:08.910Z,94.80
2023-05-19T08:38:38.967Z,95.30
2023-05-19T08:41:09.151Z,95.30
2023-05-19T08:43:39.608Z,94.80
2023-05-19T08:46:10.011Z,94.40
2023-05-19T08:48:42.476Z,94.20
2023-05-19T08:51:24.163Z,94.30
2023-05-19T08:53:57.870Z,94.70
2023-05-19T08:56:28.033Z,94.60
2023-05-19T08:59:00.609Z,93.20
2023-05-19T09:01:31.868Z,93.90
2023-05-19T09:04:02.179Z,92.40
2023-05-19T09:06:35.517Z,94.00
2023-05-19T09:09:06.986Z,92.60
2023-05-19T09:11:38.010Z,93.00
2023-05-19T09:14:08.236Z,93.00
2023-05-19T09:16:38.455Z,92.10
2023-05-19T09:19:08.895Z,92.50
2023-05-19T09:21:42.089Z,92.00
2023-05-19T09:24:13.225Z,92.70
2023-05-19T09:26:45.565Z,92.70
2023-05-19T09:29:16.413Z,92.00
2023-05-19T09:31:53.027Z,91.90
2023-05-19T09:34:25.198Z,92.50
2023-05-19T09:37:00.012Z,92.70
2023-05-19T09:39:30.120Z,92.30
2023-05-19T09:42:00.656Z,91.90
2023-05-19T09:44:31.515Z,92.00
2023-05-19T09:47:02.418Z,92.50
2023-05-19T09:49:34.088Z,91.20
2023-05-19T09:52:10.002Z,92.00
2023-05-19T09:54:43.241Z,91.70
2023-05-19T09:57:13.701Z,91.30
2023-05-19T09:59:45.073Z,90.60
2023-05-19T10:02:21.485Z,91.50
2023-05-19T10:04:52.052Z,90.90
2023-05-19T10:07:27.537Z,90.50
2023-05-19T10:09:58.769Z,90.00
2023-05-19T10:12:29.750Z,89.70
2023-05-19T10:15:00.438Z,88.20
2023-05-19T10:17:31.917Z,90.30
2023-05-19T10:20:03.906Z,89.00
2023-05-19T10:22:37.042Z,89.30
2023-05-19T10:25:08.369Z,88.50
2023-05-19T10:27:43.264Z,88.20
2023-05-19T10:30:19.205Z,90.00
2023-05-19T10:32:52.774Z,89.60
2023-05-19T10:35:50.454Z,87.80
2023-05-19T10:38:32.519Z,87.80
2023-05-19T10:41:10.777Z,85.60
2023-05-19T10:44:01.209Z,86.20
2023-05-19T10:46:33.236Z,87.90
2023-05-19T10:49:03.366Z,85.70
2023-05-19T10:51:34.730Z,85.40
2023-05-19T10:54:14.406Z,86.30
2023-05-19T10:56:47.750Z,86.30
2023-05-19T10:59:37.397Z,86.30
2023-05-19T11:02:08.220Z,86.30
2023-05-19T11:04:51.110Z,84.20
2023-05-19T11:07:24.707Z,85.40
2023-05-19T11:09:57.910Z,86.00
2023-05-19T11:12:28.031Z,84.40
2023-05-19T11:14:58.502Z,83.90
2023-05-19T11:17:29.141Z,83.90
2023-05-19T11:20:00.923Z,85.30
2023-05-19T11:22:31.667Z,85.10
2023-05-19T11:25:04.395Z,86.00
2023-05-19T11:27:38.344Z,83.40
2023-05-19T11:30:17.958Z,84.30
2023-05-19T11:32:51.074Z,84.50
2023-05-19T11:35:22.861Z,82.50
2023-05-19T11:37:53.861Z,83.90
2023-05-19T11:40:27.302Z,84.60
2023-05-19T11:42:57.396Z,83.70
2023-05-19T11:45:31.890Z,85.00
2023-05-19T11:48:03.571Z,83.10
2023-05-19T11:50:35.492Z,82.70
2023-05-19T11:53:05.962Z,85.70
2023-05-19T11:55:45.178Z,83.40
2023-05-19T11:58:15.994Z,83.00
2023-05-19T12:00:48.690Z,84.10
2023-05-19T12:03:20.847Z,85.20
2023-05-19T12:05:52.466Z,84.20
2023-05-19T12:08:23.288Z,83.90
2023-05-19T12:10:56.456Z,85.10
2023-05-19T12:13:26.658Z,85.20
2023-05-19T12:15:56.946Z,86.10
2023-05-19T12:18:32.127Z,84.70
2023-05-19T12:21:02.314Z,85.70
2023-05-19T12:23:33.134Z,84.40
2023-05-19T12:26:06.291Z,85.00
2023-05-19T12:28:36.869Z,84.00
2023-05-19T12:31:07.115Z,85.70
2023-05-19T12:33:37.611Z,85.90
2023-05-19T12:36:09.708Z,85.10
2023-05-19T12:38:42.415Z,84.80
2023-05-19T12:41:16.975Z,83.90
2023-05-19T12:43:46.883Z,84.70
2023-05-19T12:46:18.257Z,85.00
2023-05-19T12:48:49.286Z,84.30
2023-05-19T12:51:22.976Z,86.10
2023-05-19T12:53:53.701Z,84.80
2023-05-19T12:56:29.828Z,83.50
2023-05-19T12:59:00.145Z,84.10
2023-05-19T13:01:32.445Z,85.20
2023-05-19T13:04:05.409Z,84.40
2023-05-19T13:06:36.329Z,84.20
2023-05-19T13:09:07.405Z,84.50
2023-05-19T13:11:40.632Z,85.40
2023-05-19T13:14:10.717Z,83.80
2023-05-19T13:16:41.137Z,84.70
2023-05-19T13:19:23.933Z,84.80
2023-05-19T13:21:55.519Z,85.00
2023-05-19T13:24:25.810Z,84.90
2023-05-19T13:26:58.616Z,84.90
2023-05-19T13:29:28.736Z,86.70
2023-05-19T13:32:01.578Z,86.80
2023-05-19T13:34:33.289Z,86.90
2023-05-19T13:37:03.885Z,86.20
2023-05-19T13:39:34.099Z,86.10
2023-05-19T13:42:12.836Z,85.80
2023-05-19T13:44:44.469Z,86.20
2023-05-19T13:47:14.827Z,85.90
2023-05-19T13:49:45.517Z,84.50
2023-05-19T13:52:15.799Z,86.00
2023-05-19T13:54:46.090Z,85.70
2023-05-19T13:57:18.961Z,86.10
2023-05-19T14:00:00.983Z,86.20
2023-05-19T14:02:34.131Z,85.50
2023-05-19T14:05:04.422Z,86.50
2023-05-19T14:07:35.579Z,86.20
2023-05-19T14:10:07.019Z,86.10
2023-05-19T14:12:55.155Z,85.00
2023-05-19T14:15:30.255Z,85.10
2023-05-19T14:18:00.389Z,84.60
2023-05-19T14:20:30.635Z,85.00
2023-05-19T14:23:00.813Z,85.90
2023-05-19T14:25:30.876Z,86.50
2023-05-19T14:28:04.045Z,86.30
2023-05-19T14:30:34.315Z,86.10
2023-05-19T14:33:04.725Z,86.00
2023-05-19T14:35:34.791Z,86.80
2023-05-19T14:38:04.880Z,87.70
2023-05-19T14:40:35.215Z,85.90
2023-05-19T14:43:08.065Z,85.60
2023-05-19T14:45:38.235Z,85.50
2023-05-19T14:48:08.956Z,86.20
2023-05-19T14:50:39.090Z,86.20
2023-05-19T14:53:09.369Z,85.40
2023-05-19T14:55:39.528Z,85.50
2023-05-19T14:58:27.558Z,85.20
2023-05-19T15:01:01.867Z,85.20
2023-05-19T15:03:32.113Z,86.20
2023-05-19T15:06:02.378Z,85.10
2023-05-19T15:08:32.493Z,85.40
2023-05-19T15:11:02.535Z,86.30
2023-05-19T15:13:35.246Z,85.50
2023-05-19T15:16:16.817Z,85.70
2023-05-19T15:18:48.390Z,84.90
2023-05-19T15:21:18.678Z,84.60
2023-05-19T15:23:48.820Z,84.60
2023-05-19T15:26:18.967Z,84.90
2023-05-19T15:28:51.623Z,84.00
2023-05-19T15:31:22.577Z,82.80
2023-05-19T15:33:52.694Z,84.20
2023-05-19T15:36:22.904Z,84.20
2023-05-19T15:38:52.977Z,84.90
2023-05-19T15:41:23.074Z,85.80
2023-05-19T15:43:56.210Z,84.30
2023-05-19T15:46:26.517Z,82.90
2023-05-19T15:48:56.646Z,83.60
2023-05-19T15:51:27.454Z,83.10
2023-05-19T15:53:57.543Z,84.00
2023-05-19T15:56:27.597Z,83.90
2023-05-19T15:59:00.490Z,83.20
2023-05-19T16:01:30.625Z,83.60
2023-05-19T16:04:02.418Z,83.00
2023-05-19T16:06:32.713Z,83.20
2023-05-19T16:09:02.829Z,83.90
2023-05-19T16:11:32.978Z,85.00
2023-05-19T16:14:05.668Z,84.90
2023-05-19T16:16:35.846Z,85.00
2023-05-19T16:19:05.984Z,85.40
2023-05-19T16:21:36.300Z,85.40
2023-05-19T16:24:06.833Z,86.00
2023-05-19T16:26:37.188Z,85.70
2023-05-19T16:29:10.345Z,86.60
2023-05-19T16:31:40.500Z,85.90
2023-05-19T16:34:10.603Z,86.60
2023-05-19T16:36:40.684Z,86.70
2023-05-19T16:39:10.979Z,85.80
2023-05-19T16:41:41.065Z,86.00
2023-05-19T16:44:14.782Z,85.70
2023-05-19T16:46:44.862Z,86.40
2023-05-19T16:49:15.034Z,86.50
2023-05-19T16:51:46.728Z,86.80
2023-05-19T16:54:17.593Z,87.10
2023-05-19T16:56:47.673Z,87.30
2023-05-19T16:59:20.387Z,86.90
2023-05-19T17:01:50.476Z,86.70
2023-05-19T17:04:20.569Z,86.90
2023-05-19T17:06:51.186Z,87.40
2023-05-19T17:09:25.244Z,87.00
2023-05-19T17:11:55.494Z,86.90
2023-05-19T17:14:28.250Z,86.90
2023-05-19T17:16:58.357Z,86.80
2023-05-19T17:19:28.626Z,86.10
2023-05-19T17:21:58.750Z,86.30
2023-05-19T17:24:29.082Z,86.70
2023-05-19T17:26:59.140Z,86.60
2023-05-19T17:29:31.895Z,86.70
2023-05-19T17:32:02.049Z,86.40
2023-05-19T17:34:32.183Z,87.00
2023-05-19T17:37:02.273Z,87.40
2023-05-19T17:39:32.356Z,87.70
2023-05-19T17:42:02.811Z,87.50
2023-05-19T17:44:35.461Z,87.90
2023-05-19T17:47:07.430Z,88.10
2023-05-19T17:49:37.694Z,88.80
2023-05-19T17:52:09.328Z,88.50
2023-05-19T17:54:40.299Z,88.80
2023-05-19T17:57:15.054Z,89.00
2023-05-19T17:59:48.600Z,89.40
2023-05-19T18:02:19.645Z,89.40
2023-05-19T18:04:50.740Z,89.60
2023-05-19T18:07:22.562Z,89.80
2023-05-19T18:09:55.040Z,90.10
2023-05-19T18:12:25.280Z,90.20
2023-05-19T18:14:57.930Z,90.20
2023-05-19T18:17:28.118Z,90.30
2023-05-19T18:19:58.251Z,90.50
2023-05-19T18:22:28.766Z,90.70
2023-05-19T18:25:00.177Z,90.90
2023-05-19T18:27:31.577Z,91.00
2023-05-19T18:30:04.318Z,91.10
2023-05-19T18:32:34.581Z,91.20
2023-05-19T18:35:04.968Z,91.40
2023-05-19T18:37:35.263Z,91.30
2023-05-19T18:40:05.378Z,91.30
2023-05-19T18:42:35.908Z,91.40
2023-05-19T18:45:10.395Z,91.50
2023-05-19T18:47:40.433Z,91.50
2023-05-19T18:50:12.193Z,91.80
2023-05-19T18:52:43.079Z,91.80
2023-05-19T18:55:13.650Z,91.90
2023-05-19T18:57:43.735Z,91.90
2023-05-19T19:00:20.486Z,92.20
2023-05-19T19:02:50.605Z,92.20
2023-05-19T19:05:21.038Z,92.30
2023-05-19T19:07:52.620Z,92.40
2023-05-19T19:10:23.135Z,92.60
2023-05-19T19:12:53.297Z,92.70
2023-05-19T19:15:26.207Z,92.80
2023-05-19T19:17:57.024Z,92.90
2023-05-19T19:20:27.132Z,93.00
2023-05-19T19:22:58.886Z,93.20
2023-05-19T19:25:28.962Z,93.40
2023-05-19T19:27:59.027Z,93.50
2023-05-19T19:30:32.842Z,93.60
2023-05-19T19:33:04.645Z,93.70
2023-05-19T19:35:35.509Z,93.80
2023-05-19T19:38:05.713Z,94.10
2023-05-19T19:40:36.243Z,94.10
2023-05-19T19:43:06.911Z,94.00
2023-05-19T19:45:39.849Z,94.30
2023-05-19T19:48:10.516Z,94.40
2023-05-19T19:50:40.923Z,94.30
2023-05-19T19:53:11.358Z,94.50
2023-05-19T19:55:41.682Z,94.70
2023-05-19T19:58:11.917Z,94.70
2023-05-19T20:00:44.610Z,94.80
2023-05-19T20:03:14.781Z,94.80
2023-05-19T20:05:45.015Z,94.90
2023-05-19T20:08:16.133Z,94.90
2023-05-19T20:10:46.321Z,95.20
2023-05-19T20:13:19.154Z,95.40
2023-05-19T20:15:52.134Z,95.50
2023-05-19T20:18:22.220Z,95.60
2023-05-19T20:20:52.315Z,95.60
2023-05-19T20:23:22.366Z,95.80
2023-05-19T20:26:10.346Z,95.60
2023-05-19T20:28:42.386Z,95.90
2023-05-19T20:31:15.058Z,96.10
2023-05-19T20:33:45.135Z,96.30
2023-05-19T20:36:15.287Z,96.20
2023-05-19T20:38:45.392Z,96.30
2023-05-19T20:41:15.472Z,96.60
2023-05-19T20:43:46.601Z,96.80
2023-05-19T20:46:19.352Z,97.00
2023-05-19T20:48:49.466Z,97.30
2023-05-19T20:51:19.594Z,97.40
2023-05-19T20:53:49.650Z,97.50
2023-05-19T20:56:19.759Z,97.60
2023-05-19T20:58:49.827Z,97.90
2023-05-19T21:01:22.585Z,98.00
2023-05-19T21:03:52.842Z,98.20
2023-05-19T21:06:22.899Z,98.00
2023-05-19T21:08:53.148Z,98.20
2023-05-19T21:11:23.226Z,98.30
2023-05-19T21:13:54.998Z,98.30
2023-05-19T21:16:27.800Z,98.40
2023-05-19T21:18:57.973Z,98.90
2023-05-19T21:21:28.324Z,98.90
2023-05-19T21:23:58.493Z,98.90
2023-05-19T21:26:29.182Z,99.30
2023-05-19T21:28:59.244Z,99.40
2023-05-19T21:31:32.099Z,99.50
2023-05-19T21:34:02.288Z,99.60
2023-05-19T21:36:32.424Z,99.90
2023-05-19T21:39:02.515Z,99.90
2023-05-19T21:41:33.069Z,99.90
2023-05-19T21:44:03.733Z,99.90
2023-05-19T21:46:36.488Z,99.90
2023-05-19T21:49:08.711Z,99.90
2023-05-19T21:51:38.845Z,99.90
2023-05-19T21:54:09.009Z,99.90
2023-05-19T21:56:39.040Z,99.90
2023-05-19T21:59:09.320Z,99.90
2023-05-19T22:01:42.506Z,99.90
2023-05-19T22:04:13.697Z,99.90
2023-05-19T22:06:43.767Z,99.90
2023-05-19T22:09:14.060Z,99.90
2023-05-19T22:11:44.162Z,99.90
2023-05-19T22:14:14.321Z,99.90
2023-05-19T22:16:47.738Z,99.90
2023-05-19T22:19:18.126Z,99.90
2023-05-19T22:21:48.343Z,99.90
2023-05-19T22:24:19.285Z,99.90
2023-05-19T22:26:49.348Z,99.90
2023-05-19T22:29:20.245Z,99.90
2023-05-19T22:31:52.935Z,99.90
2023-05-19T22:34:23.160Z,99.90
2023-05-19T22:36:53.306Z,99.90
2023-05-19T22:39:23.432Z,99.90
2023-05-19T22:41:53.462Z,99.90
2023-05-19T22:44:23.534Z,99.90
2023-05-19T22:46:56.241Z,99.90
2023-05-19T22:49:27.515Z,99.90
2023-05-19T22:51:57.575Z,99.90
2023-05-19T22:54:27.768Z,99.90
2023-05-19T22:56:57.826Z,99.90
2023-05-19T22:59:27.873Z,99.90
2023-05-19T23:02:00.751Z,99.90
2023-05-19T23:04:31.001Z,99.90
2023-05-19T23:07:01.136Z,99.90
2023-05-19T23:09:34.025Z,99.90
2023-05-19T23:12:04.085Z,99.90
2023-05-19T23:14:34.450Z,99.90
2023-05-19T23:17:07.661Z,99.90
2023-05-19T23:19:37.795Z,99.90
2023-05-19T23:22:08.892Z,99.90
2023-05-19T23:24:39.799Z,99.90
2023-05-19T23:27:09.881Z,99.90
2023-05-19T23:29:39.927Z,99.90
2023-05-19T23:32:12.718Z,99.90
2023-05-19T23:34:42.784Z,99.90
2023-05-19T23:37:12.886Z,99.90
2023-05-19T23:39:43.397Z,99.90
2023-05-19T23:42:13.512Z,99.90
2023-05-19T23:44:43.596Z,99.90
2023-05-19T23:47:16.218Z,99.90
2023-05-19T23:49:46.531Z,99.90
2023-05-19T23:52:16.587Z,99.90
2023-05-19T23:54:46.709Z,99.90
2023-05-19T23:57:16.750Z,99.90
2023-05-19T23:59:46.999Z,99.90
